sensor_id;sensor_type;location;lat;lon;timestamp;pressure;altitude;pressure_sealevel;temperature;humidity
15932;BME280;8065;49.520;11.284;2022-07-29T00:01:53;97360.13;;;23.20;51.89
15932;BME280;8065;49.520;11.284;2022-07-29T00:04:20;97340.97;;;23.38;51.67
15932;BME280;8065;49.520;11.284;2022-07-29T00:06:47;97351.19;;;23.24;51.58
15932;BME280;8065;49.520;11.284;2022-07-29T00:09:14;97342.81;;;23.11;51.80
15932;BME280;8065;49.520;11.284;2022-07-29T00:11:41;97340.50;;;23.09;51.68
15932;BME280;8065;49.520;11.284;2022-07-29T00:14:08;97341.97;;;23.17;51.79
15932;BME280;8065;49.520;11.284;2022-07-29T00:16:34;97342.72;;;23.18;51.62
15932;BME280;8065;49.520;11.284;2022-07-29T00:19:01;97342.38;;;23.16;51.69
15932;BME280;8065;49.520;11.284;2022-07-29T00:21:28;97334.31;;;23.09;51.97
15932;BME280;8065;49.520;11.284;2022-07-29T00:23:56;97326.56;;;23.07;51.91
15932;BME280;8065;49.520;11.284;2022-07-29T00:26:22;97331.16;;;23.14;51.95
15932;BME280;8065;49.520;11.284;2022-07-29T00:28:49;97325.69;;;23.17;51.76
15932;BME280;8065;49.520;11.284;2022-07-29T00:31:15;97330.44;;;23.10;51.90
15932;BME280;8065;49.520;11.284;2022-07-29T00:33:42;97326.56;;;23.07;51.92
15932;BME280;8065;49.520;11.284;2022-07-29T00:36:08;97326.94;;;23.09;51.97
15932;BME280;8065;49.520;11.284;2022-07-29T00:38:34;97326.53;;;23.11;52.11
15932;BME280;8065;49.520;11.284;2022-07-29T00:41:01;97327.41;;;23.01;52.22
15932;BME280;8065;49.520;11.284;2022-07-29T00:43:28;97323.59;;;22.95;52.77
15932;BME280;8065;49.520;11.284;2022-07-29T00:45:54;97324.38;;;22.95;52.53
15932;BME280;8065;49.520;11.284;2022-07-29T00:48:21;97323.59;;;22.95;52.70
15932;BME280;8065;49.520;11.284;2022-07-29T00:50:49;97326.03;;;22.85;52.91
15932;BME280;8065;49.520;11.284;2022-07-29T00:53:15;97324.53;;;22.81;52.64
15932;BME280;8065;49.520;11.284;2022-07-29T00:55:42;97325.28;;;22.78;52.78
15932;BME280;8065;49.520;11.284;2022-07-29T00:58:11;97319.06;;;22.84;52.62
15932;BME280;8065;49.520;11.284;2022-07-29T01:00:38;97320.63;;;22.78;53.15
15932;BME280;8065;49.520;11.284;2022-07-29T01:03:05;97314.44;;;22.78;52.94
15932;BME280;8065;49.520;11.284;2022-07-29T01:05:33;97308.72;;;22.69;52.97
15932;BME280;8065;49.520;11.284;2022-07-29T01:08:00;97301.41;;;22.66;52.77
15932;BME280;8065;49.520;11.284;2022-07-29T01:10:28;97299.06;;;22.68;53.13
15932;BME280;8065;49.520;11.284;2022-07-29T01:12:58;97315.38;;;22.61;53.10
15932;BME280;8065;49.520;11.284;2022-07-29T01:15:27;97316.13;;;22.65;52.89
15932;BME280;8065;49.520;11.284;2022-07-29T01:17:59;97306.13;;;22.58;53.16
15932;BME280;8065;49.520;11.284;2022-07-29T01:20:36;97307.63;;;22.63;53.33
15932;BME280;8065;49.520;11.284;2022-07-29T01:23:39;97305.28;;;22.65;53.25
15932;BME280;8065;49.520;11.284;2022-07-29T01:26:42;97301.03;;;22.64;53.26
15932;BME280;8065;49.520;11.284;2022-07-29T01:29:16;97303.03;;;22.56;53.34
15932;BME280;8065;49.520;11.284;2022-07-29T01:31:48;97291.44;;;22.55;53.69
15932;BME280;8065;49.520;11.284;2022-07-29T01:34:21;97301.44;;;22.62;53.22
15932;BME280;8065;49.520;11.284;2022-07-29T01:36:52;97299.06;;;22.68;53.41
15932;BME280;8065;49.520;11.284;2022-07-29T01:39:26;97295.25;;;22.62;53.08
15932;BME280;8065;49.520;11.284;2022-07-29T01:41:57;97297.53;;;22.67;53.40
15932;BME280;8065;49.520;11.284;2022-07-29T01:44:31;97289.38;;;22.70;53.31
15932;BME280;8065;49.520;11.284;2022-07-29T01:47:04;97282.88;;;22.61;53.54
15932;BME280;8065;49.520;11.284;2022-07-29T01:49:35;97278.63;;;22.60;53.12
15932;BME280;8065;49.520;11.284;2022-07-29T01:52:07;97279.03;;;22.58;53.19
15932;BME280;8065;49.520;11.284;2022-07-29T01:54:37;97275.31;;;22.45;53.50
15932;BME280;8065;49.520;11.284;2022-07-29T01:57:06;97284.84;;;22.56;52.94
15932;BME280;8065;49.520;11.284;2022-07-29T01:59:36;97293.75;;;22.57;53.46
15932;BME280;8065;49.520;11.284;2022-07-29T02:02:04;97296.78;;;22.63;53.34
15932;BME280;8065;49.520;11.284;2022-07-29T02:04:35;97286.69;;;22.67;53.21
15932;BME280;8065;49.520;11.284;2022-07-29T02:07:05;97288.22;;;22.68;53.55
15932;BME280;8065;49.520;11.284;2022-07-29T02:09:33;97289.75;;;22.69;53.39
15932;BME280;8065;49.520;11.284;2022-07-29T02:12:03;97289.75;;;22.69;53.01
15932;BME280;8065;49.520;11.284;2022-07-29T02:14:33;97296.00;;;22.66;53.40
15932;BME280;8065;49.520;11.284;2022-07-29T02:17:03;97292.91;;;22.64;53.18
15932;BME280;8065;49.520;11.284;2022-07-29T02:19:32;97290.63;;;22.58;53.43
15932;BME280;8065;49.520;11.284;2022-07-29T02:21:59;97283.03;;;22.46;53.53
15932;BME280;8065;49.520;11.284;2022-07-29T02:24:28;97287.66;;;22.49;53.77
15932;BME280;8065;49.520;11.284;2022-07-29T02:26:57;97291.53;;;22.48;53.62
15932;BME280;8065;49.520;11.284;2022-07-29T02:29:26;97298.03;;;22.54;53.48
15932;BME280;8065;49.520;11.284;2022-07-29T02:31:55;97306.16;;;22.54;53.39
15932;BME280;8065;49.520;11.284;2022-07-29T02:34:25;97312.72;;;22.57;53.46
15932;BME280;8065;49.520;11.284;2022-07-29T02:36:52;97317.72;;;22.58;53.47
15932;BME280;8065;49.520;11.284;2022-07-29T02:39:21;97321.97;;;22.60;53.45
15932;BME280;8065;49.520;11.284;2022-07-29T02:41:50;97309.97;;;22.61;53.49
15932;BME280;8065;49.520;11.284;2022-07-29T02:44:19;97316.19;;;22.57;54.96
15932;BME280;8065;49.520;11.284;2022-07-29T02:46:50;97308.28;;;22.36;54.98
15932;BME280;8065;49.520;11.284;2022-07-29T02:49:27;97308.31;;;22.29;55.96
15932;BME280;8065;49.520;11.284;2022-07-29T02:51:59;97302.56;;;22.23;56.06
15932;BME280;8065;49.520;11.284;2022-07-29T02:54:33;97293.72;;;22.16;56.72
15932;BME280;8065;49.520;11.284;2022-07-29T02:57:04;97291.03;;;22.12;57.00
15932;BME280;8065;49.520;11.284;2022-07-29T02:59:34;97291.81;;;22.13;57.03
15932;BME280;8065;49.520;11.284;2022-07-29T03:02:04;97297.31;;;22.02;57.74
15932;BME280;8065;49.520;11.284;2022-07-29T03:04:34;97293.09;;;21.90;58.47
15932;BME280;8065;49.520;11.284;2022-07-29T03:07:01;97298.13;;;21.88;58.96
15932;BME280;8065;49.520;11.284;2022-07-29T03:09:29;97301.59;;;21.92;59.28
15932;BME280;8065;49.520;11.284;2022-07-29T03:11:56;97305.84;;;21.93;58.89
15932;BME280;8065;49.520;11.284;2022-07-29T03:14:24;97298.91;;;21.89;59.15
15932;BME280;8065;49.520;11.284;2022-07-29T03:16:51;97301.28;;;21.80;58.21
15932;BME280;8065;49.520;11.284;2022-07-29T03:19:19;97299.00;;;21.71;58.29
15932;BME280;8065;49.520;11.284;2022-07-29T03:21:47;97299.78;;;21.68;58.76
15932;BME280;8065;49.520;11.284;2022-07-29T03:24:28;97300.94;;;21.71;58.28
15932;BME280;8065;49.520;11.284;2022-07-29T03:26:55;97302.09;;;21.70;58.77
15932;BME280;8065;49.520;11.284;2022-07-29T03:29:22;97302.16;;;21.66;58.89
15932;BME280;8065;49.520;11.284;2022-07-29T03:31:49;97299.13;;;21.53;58.75
15932;BME280;8065;49.520;11.284;2022-07-29T03:34:15;97294.50;;;21.50;58.70
15932;BME280;8065;49.520;11.284;2022-07-29T03:36:42;97304.16;;;21.51;58.90
15932;BME280;8065;49.520;11.284;2022-07-29T03:39:11;97302.97;;;21.56;58.82
15932;BME280;8065;49.520;11.284;2022-07-29T03:41:40;97302.97;;;21.59;58.47
15932;BME280;8065;49.520;11.284;2022-07-29T03:44:08;97307.22;;;21.57;58.15
15932;BME280;8065;49.520;11.284;2022-07-29T03:46:37;97304.09;;;21.62;58.43
15932;BME280;8065;49.520;11.284;2022-07-29T03:49:06;97298.31;;;21.64;59.22
15932;BME280;8065;49.520;11.284;2022-07-29T03:51:34;97299.50;;;21.59;58.86
15932;BME280;8065;49.520;11.284;2022-07-29T03:54:01;97298.31;;;21.60;58.58
15932;BME280;8065;49.520;11.284;2022-07-29T03:56:32;97304.50;;;21.61;59.06
15932;BME280;8065;49.520;11.284;2022-07-29T03:59:01;97297.94;;;21.62;59.15
15932;BME280;8065;49.520;11.284;2022-07-29T04:01:29;97289.03;;;21.61;59.04
15932;BME280;8065;49.520;11.284;2022-07-29T04:03:56;97295.63;;;21.56;58.87
15932;BME280;8065;49.520;11.284;2022-07-29T04:06:22;97286.84;;;21.38;58.14
15932;BME280;8065;49.520;11.284;2022-07-29T04:08:50;97289.94;;;21.33;58.45
15932;BME280;8065;49.520;11.284;2022-07-29T04:11:17;97297.28;;;21.36;58.79
15932;BME280;8065;49.520;11.284;2022-07-29T04:13:45;97289.94;;;21.37;59.14
15932;BME280;8065;49.520;11.284;2022-07-29T04:16:12;97291.84;;;21.40;59.61
15932;BME280;8065;49.520;11.284;2022-07-29T04:18:38;97299.16;;;21.46;59.97
15932;BME280;8065;49.520;11.284;2022-07-29T04:21:05;97307.25;;;21.50;60.38
15932;BME280;8065;49.520;11.284;2022-07-29T04:23:32;97314.59;;;21.53;60.66
15932;BME280;8065;49.520;11.284;2022-07-29T04:25:58;97306.53;;;21.35;58.83
15932;BME280;8065;49.520;11.284;2022-07-29T04:28:26;97309.28;;;21.24;58.95
15932;BME280;8065;49.520;11.284;2022-07-29T04:30:54;97312.72;;;21.32;58.68
15932;BME280;8065;49.520;11.284;2022-07-29T04:33:20;97306.94;;;21.34;58.72
15932;BME280;8065;49.520;11.284;2022-07-29T04:35:47;97313.88;;;21.35;58.57
15932;BME280;8065;49.520;11.284;2022-07-29T04:38:14;97316.16;;;21.43;58.76
15932;BME280;8065;49.520;11.284;2022-07-29T04:40:40;97315.00;;;21.48;59.14
15932;BME280;8065;49.520;11.284;2022-07-29T04:43:07;97323.06;;;21.55;59.23
15932;BME280;8065;49.520;11.284;2022-07-29T04:45:33;97325.78;;;21.55;59.97
15932;BME280;8065;49.520;11.284;2022-07-29T04:48:01;97328.47;;;21.55;59.71
15932;BME280;8065;49.520;11.284;2022-07-29T04:50:28;97330.41;;;21.54;58.70
15932;BME280;8065;49.520;11.284;2022-07-29T04:52:54;97327.69;;;21.58;58.54
15932;BME280;8065;49.520;11.284;2022-07-29T04:55:21;97328.44;;;21.62;58.85
15932;BME280;8065;49.520;11.284;2022-07-29T04:57:48;97330.38;;;21.65;58.36
15932;BME280;8065;49.520;11.284;2022-07-29T05:00:15;97328.38;;;21.69;58.30
15932;BME280;8065;49.520;11.284;2022-07-29T05:02:41;97328.38;;;21.69;59.11
15932;BME280;8065;49.520;11.284;2022-07-29T05:05:09;97330.00;;;21.63;59.67
15932;BME280;8065;49.520;11.284;2022-07-29T05:07:36;97333.84;;;21.62;61.08
15932;BME280;8065;49.520;11.284;2022-07-29T05:10:03;97333.13;;;21.51;62.97
15932;BME280;8065;49.520;11.284;2022-07-29T05:12:30;97337.75;;;21.54;63.14
15932;BME280;8065;49.520;11.284;2022-07-29T05:14:57;97337.75;;;21.54;63.85
15932;BME280;8065;49.520;11.284;2022-07-29T05:17:23;97340.03;;;21.66;63.62
15932;BME280;8065;49.520;11.284;2022-07-29T05:19:50;97333.78;;;21.69;63.67
15932;BME280;8065;49.520;11.284;2022-07-29T05:22:19;97338.44;;;21.69;61.51
15932;BME280;8065;49.520;11.284;2022-07-29T05:24:46;97338.41;;;21.72;60.50
15932;BME280;8065;49.520;11.284;2022-07-29T05:27:12;97339.22;;;21.69;59.64
15932;BME280;8065;49.520;11.284;2022-07-29T05:29:39;97333.47;;;21.60;60.09
15932;BME280;8065;49.520;11.284;2022-07-29T05:32:06;97326.56;;;21.52;60.55
15932;BME280;8065;49.520;11.284;2022-07-29T05:34:32;97328.88;;;21.53;60.79
15932;BME280;8065;49.520;11.284;2022-07-29T05:36:59;97332.38;;;21.50;62.14
15932;BME280;8065;49.520;11.284;2022-07-29T05:41:53;97334.28;;;21.50;63.23
15932;BME280;8065;49.520;11.284;2022-07-29T05:44:20;97342.41;;;21.50;64.12
15932;BME280;8065;49.520;11.284;2022-07-29T05:46:46;97340.91;;;21.42;63.88
15932;BME280;8065;49.520;11.284;2022-07-29T05:49:13;97344.34;;;21.46;62.51
15932;BME280;8065;49.520;11.284;2022-07-29T05:51:40;97347.06;;;21.42;60.02
15932;BME280;8065;49.520;11.284;2022-07-29T05:54:06;97349.38;;;21.44;59.01
15932;BME280;8065;49.520;11.284;2022-07-29T05:56:35;97349.38;;;21.44;60.24
15932;BME280;8065;49.520;11.284;2022-07-29T05:59:02;97355.16;;;21.46;60.58
15932;BME280;8065;49.520;11.284;2022-07-29T06:01:28;97345.53;;;21.41;60.63
15932;BME280;8065;49.520;11.284;2022-07-29T06:03:55;97353.25;;;21.46;60.89
15932;BME280;8065;49.520;11.284;2022-07-29T06:06:22;97352.09;;;21.44;62.15
15932;BME280;8065;49.520;11.284;2022-07-29T06:08:48;97354.03;;;21.43;62.42
15932;BME280;8065;49.520;11.284;2022-07-29T06:11:15;97352.47;;;21.46;61.29
15932;BME280;8065;49.520;11.284;2022-07-29T06:13:43;97348.56;;;21.54;60.94
15932;BME280;8065;49.520;11.284;2022-07-29T06:16:09;97355.50;;;21.62;60.88
15932;BME280;8065;49.520;11.284;2022-07-29T06:18:36;97353.88;;;21.75;59.26
15932;BME280;8065;49.520;11.284;2022-07-29T06:21:07;97350.72;;;21.87;58.56
15932;BME280;8065;49.520;11.284;2022-07-29T06:23:35;97356.13;;;21.84;58.93
15932;BME280;8065;49.520;11.284;2022-07-29T06:26:01;97356.84;;;22.02;58.72
15932;BME280;8065;49.520;11.284;2022-07-29T06:28:28;97352.56;;;22.08;57.91
15932;BME280;8065;49.520;11.284;2022-07-29T06:30:56;97352.47;;;22.19;58.52
15932;BME280;8065;49.520;11.284;2022-07-29T06:33:23;97357.88;;;22.22;57.68
15932;BME280;8065;49.520;11.284;2022-07-29T06:35:50;97354.41;;;22.22;58.01
15932;BME280;8065;49.520;11.284;2022-07-29T06:38:16;97362.38;;;22.43;57.35
15932;BME280;8065;49.520;11.284;2022-07-29T06:40:43;97355.59;;;22.66;57.38
15932;BME280;8065;49.520;11.284;2022-07-29T06:43:31;97355.59;;;22.66;56.64
15932;BME280;8065;49.520;11.284;2022-07-29T06:46:02;97341.56;;;22.78;57.19
15932;BME280;8065;49.520;11.284;2022-07-29T06:48:29;97349.66;;;22.85;56.74
15932;BME280;8065;49.520;11.284;2022-07-29T06:50:56;97362.31;;;22.95;56.89
15932;BME280;8065;49.520;11.284;2022-07-29T06:53:22;97351.28;;;23.16;56.46
15932;BME280;8065;49.520;11.284;2022-07-29T06:55:49;97352.81;;;23.17;57.05
15932;BME280;8065;49.520;11.284;2022-07-29T06:58:16;97348.03;;;23.29;57.21
15932;BME280;8065;49.520;11.284;2022-07-29T07:00:45;97353.28;;;23.43;56.60
15932;BME280;8065;49.520;11.284;2022-07-29T07:03:14;97361.13;;;23.37;56.10
15932;BME280;8065;49.520;11.284;2022-07-29T07:05:41;97350.06;;;23.55;56.85
15932;BME280;8065;49.520;11.284;2022-07-29T07:08:07;97351.34;;;23.77;56.55
15932;BME280;8065;49.520;11.284;2022-07-29T07:10:34;97355.94;;;23.80;56.44
15932;BME280;8065;49.520;11.284;2022-07-29T07:13:03;97354.94;;;23.98;56.63
15932;BME280;8065;49.520;11.284;2022-07-29T07:15:30;97355.66;;;24.02;56.72
15932;BME280;8065;49.520;11.284;2022-07-29T07:17:57;97355.63;;;24.05;56.16
15932;BME280;8065;49.520;11.284;2022-07-29T07:20:25;97364.25;;;23.97;55.93
15932;BME280;8065;49.520;11.284;2022-07-29T07:22:51;97357.97;;;24.03;56.44
15932;BME280;8065;49.520;11.284;2022-07-29T07:25:18;97350.94;;;24.06;57.47
15932;BME280;8065;49.520;11.284;2022-07-29T07:27:45;97348.38;;;24.22;57.11
15932;BME280;8065;49.520;11.284;2022-07-29T07:30:12;97351.34;;;24.31;56.96
15932;BME280;8065;49.520;11.284;2022-07-29T07:32:39;97359.22;;;24.26;57.00
15932;BME280;8065;49.520;11.284;2022-07-29T07:35:07;97348.41;;;24.45;56.77
15932;BME280;8065;49.520;11.284;2022-07-29T07:37:36;97349.50;;;24.51;56.70
15932;BME280;8065;49.520;11.284;2022-07-29T07:40:04;97347.84;;;24.58;56.39
15932;BME280;8065;49.520;11.284;2022-07-29T07:42:31;97349.13;;;24.73;56.57
15932;BME280;8065;49.520;11.284;2022-07-29T07:44:58;97352.09;;;24.82;56.48
15932;BME280;8065;49.520;11.284;2022-07-29T07:47:24;97349.50;;;24.98;55.85
15932;BME280;8065;49.520;11.284;2022-07-29T07:49:51;97361.94;;;24.96;55.73
15932;BME280;8065;49.520;11.284;2022-07-29T07:52:19;97359.19;;;24.99;55.52
15932;BME280;8065;49.520;11.284;2022-07-29T07:54:47;97353.50;;;24.90;56.12
15932;BME280;8065;49.520;11.284;2022-07-29T07:57:15;97343.88;;;25.09;56.39
15932;BME280;8065;49.520;11.284;2022-07-29T07:59:42;97347.72;;;25.11;55.92
15932;BME280;8065;49.520;11.284;2022-07-29T08:02:09;97349.50;;;25.38;56.29
15932;BME280;8065;49.520;11.284;2022-07-29T08:04:36;97345.31;;;25.53;54.81
15932;BME280;8065;49.520;11.284;2022-07-29T08:07:05;97348.53;;;25.08;56.13
15932;BME280;8065;49.520;11.284;2022-07-29T08:09:32;97344.41;;;25.20;55.98
15932;BME280;8065;49.520;11.284;2022-07-29T08:12:01;97343.09;;;25.08;56.77
15932;BME280;8065;49.520;11.284;2022-07-29T08:14:29;97341.69;;;25.00;56.77
15932;BME280;8065;49.520;11.284;2022-07-29T08:16:56;97346.09;;;25.14;56.58
15932;BME280;8065;49.520;11.284;2022-07-29T08:19:22;97350.75;;;25.13;57.10
15932;BME280;8065;49.520;11.284;2022-07-29T08:21:49;97346.00;;;25.17;57.51
15932;BME280;8065;49.520;11.284;2022-07-29T08:24:17;97352.03;;;25.29;57.21
15932;BME280;8065;49.520;11.284;2022-07-29T08:27:03;97341.78;;;25.36;57.19
15932;BME280;8065;49.520;11.284;2022-07-29T08:29:29;97343.66;;;25.59;56.83
15932;BME280;8065;49.520;11.284;2022-07-29T08:31:56;97333.09;;;25.81;56.40
15932;BME280;8065;49.520;11.284;2022-07-29T08:34:22;97332.19;;;25.88;56.26
15932;BME280;8065;49.520;11.284;2022-07-29T08:36:49;97332.34;;;25.80;56.22
15932;BME280;8065;49.520;11.284;2022-07-29T08:39:15;97338.09;;;25.66;55.88
15932;BME280;8065;49.520;11.284;2022-07-29T08:41:42;97343.56;;;25.83;56.29
15932;BME280;8065;49.520;11.284;2022-07-29T08:44:10;97339.00;;;25.96;55.95
15932;BME280;8065;49.520;11.284;2022-07-29T08:46:37;97340.88;;;25.99;55.52
15932;BME280;8065;49.520;11.284;2022-07-29T08:49:04;97336.31;;;26.28;55.79
15932;BME280;8065;49.520;11.284;2022-07-29T08:51:33;97340.69;;;26.58;55.09
15932;BME280;8065;49.520;11.284;2022-07-29T08:54:01;97332.66;;;26.67;54.50
15932;BME280;8065;49.520;11.284;2022-07-29T08:56:28;97346.22;;;26.38;54.61
15932;BME280;8065;49.520;11.284;2022-07-29T08:58:57;97334.97;;;26.69;54.98
15932;BME280;8065;49.520;11.284;2022-07-29T09:01:27;97340.25;;;26.76;54.55
15932;BME280;8065;49.520;11.284;2022-07-29T09:03:56;97331.84;;;26.99;55.87
15932;BME280;8065;49.520;11.284;2022-07-29T09:06:30;97333.25;;;26.75;54.86
15932;BME280;8065;49.520;11.284;2022-07-29T09:08:58;97333.19;;;26.91;54.09
15932;BME280;8065;49.520;11.284;2022-07-29T09:11:26;97329.44;;;27.01;54.49
15932;BME280;8065;49.520;11.284;2022-07-29T09:13:53;97323.28;;;27.14;54.29
15932;BME280;8065;49.520;11.284;2022-07-29T09:16:20;97326.84;;;27.39;54.24
15932;BME280;8065;49.520;11.284;2022-07-29T09:18:48;97320.63;;;27.39;53.08
15932;BME280;8065;49.520;11.284;2022-07-29T09:21:16;97325.88;;;27.46;53.61
15932;BME280;8065;49.520;11.284;2022-07-29T09:24:02;97321.66;;;27.16;54.62
15932;BME280;8065;49.520;11.284;2022-07-29T09:26:31;97326.84;;;27.68;54.73
15932;BME280;8065;49.520;11.284;2022-07-29T09:28:58;97322.34;;;27.87;54.21
15932;BME280;8065;49.520;11.284;2022-07-29T09:31:32;97315.38;;;28.12;54.68
15932;BME280;8065;49.520;11.284;2022-07-29T09:34:01;97321.03;;;28.17;53.50
15932;BME280;8065;49.520;11.284;2022-07-29T09:36:28;97322.47;;;28.34;52.84
15932;BME280;8065;49.520;11.284;2022-07-29T09:38:58;97321.06;;;28.30;53.61
15932;BME280;8065;49.520;11.284;2022-07-29T09:41:26;97322.72;;;28.27;53.97
15932;BME280;8065;49.520;11.284;2022-07-29T09:43:54;97315.06;;;28.22;53.56
15932;BME280;8065;49.520;11.284;2022-07-29T09:46:21;97307.91;;;28.50;53.36
15932;BME280;8065;49.520;11.284;2022-07-29T09:49:07;97317.84;;;28.57;53.53
15932;BME280;8065;49.520;11.284;2022-07-29T09:51:34;97308.94;;;28.65;54.35
15932;BME280;8065;49.520;11.284;2022-07-29T09:54:01;97311.50;;;28.94;53.54
15932;BME280;8065;49.520;11.284;2022-07-29T09:56:39;97311.50;;;28.60;53.41
15932;BME280;8065;49.520;11.284;2022-07-29T09:59:07;97307.59;;;28.83;52.95
15932;BME280;8065;49.520;11.284;2022-07-29T10:01:34;97309.78;;;28.75;53.12
15932;BME280;8065;49.520;11.284;2022-07-29T10:04:01;97308.00;;;28.94;52.72
15932;BME280;8065;49.520;11.284;2022-07-29T10:06:29;97308.59;;;28.42;52.93
15932;BME280;8065;49.520;11.284;2022-07-29T10:09:07;97312.63;;;28.50;53.34
15932;BME280;8065;49.520;11.284;2022-07-29T10:11:33;97316.13;;;28.37;53.67
15932;BME280;8065;49.520;11.284;2022-07-29T10:14:02;97310.75;;;28.47;54.19
15932;BME280;8065;49.520;11.284;2022-07-29T10:16:30;97310.03;;;28.33;54.21
15932;BME280;8065;49.520;11.284;2022-07-29T10:18:59;97314.22;;;28.60;53.79
15932;BME280;8065;49.520;11.284;2022-07-29T10:21:26;97303.16;;;28.98;53.74
15932;BME280;8065;49.520;11.284;2022-07-29T10:23:55;97299.94;;;29.34;53.35
15932;BME280;8065;49.520;11.284;2022-07-29T10:26:23;97306.19;;;29.65;53.01
15932;BME280;8065;49.520;11.284;2022-07-29T10:28:50;97301.75;;;29.59;53.13
15932;BME280;8065;49.520;11.284;2022-07-29T10:31:23;97295.56;;;29.67;52.35
15932;BME280;8065;49.520;11.284;2022-07-29T10:34:01;97295.66;;;28.89;53.26
15932;BME280;8065;49.520;11.284;2022-07-29T10:36:48;97301.47;;;28.79;54.07
15932;BME280;8065;49.520;11.284;2022-07-29T10:39:32;97289.69;;;29.03;54.29
15932;BME280;8065;49.520;11.284;2022-07-29T10:42:11;97293.75;;;29.21;54.18
15932;BME280;8065;49.520;11.284;2022-07-29T10:44:42;97290.94;;;29.55;53.66
15932;BME280;8065;49.520;11.284;2022-07-29T10:47:19;97291.91;;;29.71;53.36
15932;BME280;8065;49.520;11.284;2022-07-29T10:49:55;97282.94;;;30.01;51.93
15932;BME280;8065;49.520;11.284;2022-07-29T10:52:22;97277.94;;;29.78;52.40
15932;BME280;8065;49.520;11.284;2022-07-29T10:54:54;97271.84;;;30.05;52.29
15932;BME280;8065;49.520;11.284;2022-07-29T10:57:26;97276.34;;;29.98;52.37
15932;BME280;8065;49.520;11.284;2022-07-29T11:00:25;97270.47;;;30.09;51.38
15932;BME280;8065;49.520;11.284;2022-07-29T11:02:52;97257.56;;;30.37;52.27
15932;BME280;8065;49.520;11.284;2022-07-29T11:05:20;97266.91;;;30.58;50.70
15932;BME280;8065;49.520;11.284;2022-07-29T11:08:17;97259.00;;;30.78;50.95
15932;BME280;8065;49.520;11.284;2022-07-29T11:10:47;97241.28;;;30.97;51.04
15932;BME280;8065;49.520;11.284;2022-07-29T11:16:22;97245.72;;;31.04;50.77
15932;BME280;8065;49.520;11.284;2022-07-29T11:19:18;97242.16;;;31.22;50.93
15932;BME280;8065;49.520;11.284;2022-07-29T11:21:45;97246.78;;;31.16;50.44
15932;BME280;8065;49.520;11.284;2022-07-29T11:24:16;97241.75;;;30.96;50.48
15932;BME280;8065;49.520;11.284;2022-07-29T11:26:44;97239.16;;;31.02;50.50
15932;BME280;8065;49.520;11.284;2022-07-29T11:29:18;97244.31;;;30.45;51.46
15932;BME280;8065;49.520;11.284;2022-07-29T11:31:47;97245.94;;;30.06;52.39
15932;BME280;8065;49.520;11.284;2022-07-29T11:34:22;97245.19;;;30.05;52.73
15932;BME280;8065;49.520;11.284;2022-07-29T11:37:17;97233.94;;;30.21;52.29
15932;BME280;8065;49.520;11.284;2022-07-29T11:39:45;97239.00;;;29.83;53.19
15932;BME280;8065;49.520;11.284;2022-07-29T11:42:38;97235.38;;;29.95;52.80
15932;BME280;8065;49.520;11.284;2022-07-29T11:45:07;97240.31;;;30.09;53.20
15932;BME280;8065;49.520;11.284;2022-07-29T11:47:36;97232.72;;;30.22;52.98
15932;BME280;8065;49.520;11.284;2022-07-29T11:50:05;97236.28;;;29.92;53.88
15932;BME280;8065;49.520;11.284;2022-07-29T11:52:33;97251.31;;;29.47;55.51
15932;BME280;8065;49.520;11.284;2022-07-29T11:55:04;97247.09;;;29.46;54.79
15932;BME280;8065;49.520;11.284;2022-07-29T11:57:33;97238.56;;;29.53;54.64
15932;BME280;8065;49.520;11.284;2022-07-29T12:00:04;97232.78;;;29.51;54.64
15932;BME280;8065;49.520;11.284;2022-07-29T12:02:39;97223.94;;;29.47;56.27
15932;BME280;8065;49.520;11.284;2022-07-29T12:05:08;97221.16;;;29.78;55.01
15932;BME280;8065;49.520;11.284;2022-07-29T12:07:35;97206.63;;;29.99;54.32
15932;BME280;8065;49.520;11.284;2022-07-29T12:10:04;97208.50;;;30.21;54.21
15932;BME280;8065;49.520;11.284;2022-07-29T12:12:31;97222.06;;;30.52;53.71
15932;BME280;8065;49.520;11.284;2022-07-29T12:14:57;97213.09;;;30.79;52.28
15932;BME280;8065;49.520;11.284;2022-07-29T12:17:26;97224.38;;;30.99;52.47
15932;BME280;8065;49.520;11.284;2022-07-29T12:19:53;97214.09;;;31.27;52.34
15932;BME280;8065;49.520;11.284;2022-07-29T12:22:25;97223.28;;;31.15;50.84
15932;BME280;8065;49.520;11.284;2022-07-29T12:24:52;97219.34;;;30.97;53.02
15932;BME280;8065;49.520;11.284;2022-07-29T12:27:19;97216.28;;;31.05;51.69
15932;BME280;8065;49.520;11.284;2022-07-29T12:29:55;97209.25;;;31.13;52.22
15932;BME280;8065;49.520;11.284;2022-07-29T12:32:21;97208.97;;;30.28;54.33
15932;BME280;8065;49.520;11.284;2022-07-29T12:34:50;97220.25;;;29.81;54.59
15932;BME280;8065;49.520;11.284;2022-07-29T12:37:17;97207.75;;;30.20;54.43
15932;BME280;8065;49.520;11.284;2022-07-29T12:39:43;97205.59;;;30.15;55.02
15932;BME280;8065;49.520;11.284;2022-07-29T12:42:11;97199.81;;;30.04;55.39
15932;BME280;8065;49.520;11.284;2022-07-29T12:44:46;97198.00;;;30.47;55.15
15932;BME280;8065;49.520;11.284;2022-07-29T12:47:13;97198.28;;;30.40;55.29
15932;BME280;8065;49.520;11.284;2022-07-29T12:49:39;97201.03;;;30.49;55.94
15932;BME280;8065;49.520;11.284;2022-07-29T12:52:26;97205.03;;;30.29;56.10
15932;BME280;8065;49.520;11.284;2022-07-29T12:54:53;97204.75;;;29.87;56.82
15932;BME280;8065;49.520;11.284;2022-07-29T12:57:19;97216.66;;;29.53;55.07
15932;BME280;8065;49.520;11.284;2022-07-29T12:59:59;97204.38;;;29.27;53.37
15932;BME280;8065;49.520;11.284;2022-07-29T13:02:26;97203.59;;;29.26;51.11
15932;BME280;8065;49.520;11.284;2022-07-29T13:04:56;97196.31;;;29.01;52.91
15932;BME280;8065;49.520;11.284;2022-07-29T13:07:26;97197.97;;;28.99;54.60
15932;BME280;8065;49.520;11.284;2022-07-29T13:12:35;97202.28;;;29.09;54.53
15932;BME280;8065;49.520;11.284;2022-07-29T13:15:12;97196.56;;;29.47;54.02
15932;BME280;8065;49.520;11.284;2022-07-29T13:17:40;97190.75;;;29.14;53.17
15932;BME280;8065;49.520;11.284;2022-07-29T13:20:09;97186.81;;;29.15;53.92